createdAt,value
2023-01-26T00:00:12.203Z,100937.63
2023-01-26T00:02:40.864Z,100935.00
2023-01-26T00:05:10.134Z,100932.41
2023-01-26T00:07:39.666Z,100928.09
2023-01-26T00:10:08.540Z,100926.22
2023-01-26T00:12:37.077Z,100929.78
2023-01-26T00:15:09.306Z,100931.47
2023-01-26T00:17:38.605Z,100923.63
2023-01-26T00:20:07.675Z,100925.47
2023-01-26T00:22:36.143Z,100927.16
2023-01-26T00:25:07.381Z,100930.72
2023-01-26T00:27:35.831Z,100922.84
2023-01-26T00:30:04.463Z,100921.25
2023-01-26T00:32:36.530Z,100923.84
2023-01-26T00:35:05.614Z,100924.78
2023-01-26T00:37:34.170Z,100918.56
2023-01-26T00:40:04.977Z,100921.25
2023-01-26T00:42:33.464Z,100912.63
2023-01-26T00:45:01.889Z,100910.19
2023-01-26T00:47:30.302Z,100917.03
2023-01-26T00:50:00.600Z,100912.22
2023-01-26T00:52:29.065Z,100921.06
2023-01-26T00:54:57.429Z,100917.50
2023-01-26T00:57:25.858Z,100919.38
2023-01-26T00:59:54.298Z,100917.69
2023-01-26T01:02:22.887Z,100919.53
2023-01-26T01:04:51.411Z,100916.09
2023-01-26T01:07:21.276Z,100915.34
2023-01-26T01:09:49.723Z,100911.53
2023-01-26T01:12:18.162Z,100919.22
2023-01-26T01:14:46.592Z,100908.75
2023-01-26T01:17:15.012Z,100907.91
2023-01-26T01:19:43.564Z,100910.44
2023-01-26T01:22:12.006Z,100905.09
2023-01-26T01:24:42.173Z,100904.00
2023-01-26T01:27:10.535Z,100904.19
2023-01-26T01:29:39.448Z,100907.13
2023-01-26T01:32:07.948Z,100902.66
2023-01-26T01:34:36.278Z,100904.03
2023-01-26T01:37:04.658Z,100902.81
2023-01-26T01:39:35.341Z,100897.59
2023-01-26T01:42:05.567Z,100897.09
2023-01-26T01:44:37.355Z,100901.47
2023-01-26T01:47:08.957Z,100892.88
2023-01-26T01:49:43.412Z,100887.56
2023-01-26T01:52:17.786Z,100890.19
2023-01-26T01:54:52.371Z,100891.19
2023-01-26T01:57:28.012Z,100886.06
2023-01-26T02:00:02.079Z,100878.09
2023-01-26T02:02:30.635Z,100865.88
2023-01-26T02:05:05.493Z,100855.41
2023-01-26T02:07:34.635Z,100865.69
2023-01-26T02:10:22.009Z,100854.66
2023-01-26T02:12:56.892Z,100864.00
2023-01-26T02:15:25.437Z,100866.19
2023-01-26T02:17:54.437Z,100832.66
2023-01-26T02:20:30.252Z,100853.56
2023-01-26T02:23:06.410Z,100844.94
2023-01-26T02:25:39.480Z,100844.13
2023-01-26T02:28:09.456Z,100847.56
2023-01-26T02:30:38.104Z,100841.41
2023-01-26T02:33:06.547Z,100832.81
2023-01-26T02:35:35.005Z,100832.81
2023-01-26T02:38:03.485Z,100816.97
2023-01-26T02:40:39.373Z,100813.31
2023-01-26T02:43:08.410Z,100817.78
2023-01-26T02:45:37.477Z,100816.09
2023-01-26T02:48:06.736Z,100814.59
2023-01-26T02:50:34.961Z,100807.84
2023-01-26T02:53:03.900Z,100805.81
2023-01-26T02:55:32.685Z,100809.03
2023-01-26T02:58:04.258Z,100810.53
2023-01-26T03:00:37.583Z,100805.16
2023-01-26T03:03:13.556Z,100801.59
2023-01-26T03:05:42.202Z,100795.38
2023-01-26T03:08:10.778Z,100791.56
2023-01-26T03:10:39.550Z,100788.78
2023-01-26T03:13:08.011Z,100776.47
2023-01-26T03:15:52.866Z,100786.75
2023-01-26T03:18:40.959Z,100784.88
2023-01-26T03:21:31.664Z,100769.38
2023-01-26T03:24:17.553Z,100772.75
2023-01-26T03:27:05.053Z,100780.34
2023-01-26T03:29:34.047Z,100775.94
2023-01-26T03:32:04.285Z,100768.19
2023-01-26T03:34:32.983Z,100768.97
2023-01-26T03:37:01.448Z,100766.34
2023-01-26T03:39:46.945Z,100765.47
2023-01-26T03:42:32.703Z,100767.16
2023-01-26T03:45:18.555Z,100762.69
2023-01-26T03:48:05.515Z,100753.16
2023-01-26T03:50:56.262Z,100741.72
2023-01-26T03:53:43.299Z,100750.31
2023-01-26T03:56:18.583Z,100740.38
2023-01-26T03:58:47.007Z,100750.66
2023-01-26T04:01:20.212Z,100747.28
2023-01-26T04:04:09.406Z,100748.31
2023-01-26T04:06:56.515Z,100750.53
2023-01-26T04:09:25.457Z,100741.06
2023-01-26T04:11:53.993Z,100750.94
2023-01-26T04:14:49.369Z,100754.41
2023-01-26T04:17:36.580Z,100751.03
2023-01-26T04:20:25.248Z,100749.41
2023-01-26T04:22:53.717Z,100736.50
2023-01-26T04:25:23.303Z,100751.38
2023-01-26T04:27:51.744Z,100736.69
2023-01-26T04:30:21.219Z,100737.59
2023-01-26T04:32:49.709Z,100737.72
2023-01-26T04:35:19.526Z,100738.81
2023-01-26T04:37:48.857Z,100729.00
2023-01-26T04:40:17.427Z,100722.28
2023-01-26T04:42:46.052Z,100721.16
2023-01-26T04:45:14.569Z,100706.53
2023-01-26T04:47:42.991Z,100711.25
2023-01-26T04:50:12.498Z,100714.44
2023-01-26T04:52:42.616Z,100716.72
2023-01-26T04:55:11.442Z,100705.50
2023-01-26T04:57:39.869Z,100707.00
2023-01-26T05:00:11.042Z,100706.16
2023-01-26T05:02:40.640Z,100705.97
2023-01-26T05:05:10.002Z,100711.38
2023-01-26T05:07:38.412Z,100710.63
2023-01-26T05:10:09.419Z,100708.13
2023-01-26T05:12:38.526Z,100704.47
2023-01-26T05:15:07.586Z,100709.69
2023-01-26T05:17:37.187Z,100705.50
2023-01-26T05:20:06.355Z,100709.09
2023-01-26T05:22:34.773Z,100702.28
2023-01-26T05:25:03.192Z,100706.94
2023-01-26T05:27:32.975Z,100705.16
2023-01-26T05:30:01.662Z,100700.84
2023-01-26T05:32:30.825Z,100702.47
2023-01-26T05:34:59.813Z,100700.84
2023-01-26T05:37:35.052Z,100697.47
2023-01-26T05:40:04.326Z,100704.50
2023-01-26T05:42:34.189Z,100695.72
2023-01-26T05:45:02.715Z,100703.56
2023-01-26T05:47:31.237Z,100706.84
2023-01-26T05:49:59.681Z,100710.38
2023-01-26T05:52:28.081Z,100695.47
2023-01-26T05:54:56.550Z,100702.38
2023-01-26T05:57:24.996Z,100693.69
2023-01-26T05:59:54.896Z,100702.13
2023-01-26T06:02:23.368Z,100698.59
2023-01-26T06:04:51.779Z,100700.97
2023-01-26T06:07:20.419Z,100697.41
2023-01-26T06:09:50.935Z,100696.81
2023-01-26T06:12:20.935Z,100691.84
2023-01-26T06:14:49.456Z,100687.53
2023-01-26T06:17:20.056Z,100679.94
2023-01-26T06:19:48.461Z,100684.34
2023-01-26T06:22:16.889Z,100677.44
2023-01-26T06:24:45.491Z,100687.88
2023-01-26T06:27:16.328Z,100684.69
2023-01-26T06:29:45.880Z,100680.56
2023-01-26T06:32:14.913Z,100679.34
2023-01-26T06:34:44.756Z,100689.91
2023-01-26T06:37:14.172Z,100681.47
2023-01-26T06:39:42.999Z,100687.47
2023-01-26T06:42:13.185Z,100699.59
2023-01-26T06:44:41.651Z,100673.97
2023-01-26T06:47:10.114Z,100691.19
2023-01-26T06:49:38.482Z,100692.84
2023-01-26T06:52:23.913Z,100680.72
2023-01-26T06:54:52.879Z,100684.25
2023-01-26T06:57:21.352Z,100686.88
2023-01-26T06:59:49.722Z,100676.00
2023-01-26T07:02:20.746Z,100694.53
2023-01-26T07:04:50.604Z,100700.69
2023-01-26T07:07:20.480Z,100687.38
2023-01-26T07:09:48.933Z,100697.66
2023-01-26T07:12:17.303Z,100700.34
2023-01-26T07:14:45.663Z,100692.69
2023-01-26T07:17:14.411Z,100696.88
2023-01-26T07:19:42.821Z,100697.91
2023-01-26T07:22:11.254Z,100704.06
2023-01-26T07:24:41.227Z,100682.00
2023-01-26T07:27:09.719Z,100693.09
2023-01-26T07:29:38.379Z,100680.47
2023-01-26T07:32:07.254Z,100700.09
2023-01-26T07:34:36.409Z,100687.13
2023-01-26T07:37:05.334Z,100689.66
2023-01-26T07:39:34.042Z,100694.19
2023-01-26T07:42:03.862Z,100683.75
2023-01-26T07:44:32.266Z,100667.41
2023-01-26T07:47:00.898Z,100669.09
2023-01-26T07:49:29.238Z,100669.09
2023-01-26T07:51:57.653Z,100676.75
2023-01-26T07:54:26.063Z,100683.09
2023-01-26T07:56:55.181Z,100690.00
2023-01-26T07:59:25.668Z,100671.28
2023-01-26T08:01:54.197Z,100672.81
2023-01-26T08:04:22.633Z,100666.22
2023-01-26T08:06:53.252Z,100683.09
2023-01-26T08:09:21.873Z,100667.75
2023-01-26T08:11:50.282Z,100672.63
2023-01-26T08:14:18.736Z,100667.47
2023-01-26T08:16:49.019Z,100670.78
2023-01-26T08:19:17.556Z,100675.09
2023-01-26T08:21:46.010Z,100681.06
2023-01-26T08:24:14.602Z,100664.38
2023-01-26T08:26:43.245Z,100663.72
2023-01-26T08:29:11.651Z,100677.84
2023-01-26T08:31:40.136Z,100680.22
2023-01-26T08:34:09.979Z,100685.16
2023-01-26T08:36:40.019Z,100685.09
2023-01-26T08:39:08.413Z,100680.81
2023-01-26T08:41:37.069Z,100676.34
2023-01-26T08:44:05.966Z,100676.16
2023-01-26T08:46:34.581Z,100675.16
2023-01-26T08:49:03.042Z,100688.31
2023-01-26T08:51:33.032Z,100681.22
2023-01-26T08:54:01.573Z,100672.78
2023-01-26T08:56:30.050Z,100688.13
2023-01-26T08:59:01.369Z,100686.38
2023-01-26T09:01:30.322Z,100688.13
2023-01-26T09:03:58.889Z,100693.53
2023-01-26T09:06:28.566Z,100699.50
2023-01-26T09:08:58.468Z,100698.75
2023-01-26T09:11:27.225Z,100703.06
2023-01-26T09:13:56.867Z,100699.16
2023-01-26T09:16:26.328Z,100700.84
2023-01-26T09:18:55.587Z,100701.63
2023-01-26T09:21:25.317Z,100691.91
2023-01-26T09:23:53.846Z,100681.38
2023-01-26T09:26:23.886Z,100682.50
2023-01-26T09:28:53.197Z,100686.84
2023-01-26T09:31:21.825Z,100684.25
2023-01-26T09:33:50.753Z,100679.78
2023-01-26T09:36:19.469Z,100672.88
2023-01-26T09:38:47.917Z,100679.03
2023-01-26T09:41:34.811Z,100671.13
2023-01-26T09:44:07.346Z,100684.94
2023-01-26T09:46:48.111Z,100678.19
2023-01-26T09:49:22.317Z,100673.72
2023-01-26T09:51:58.184Z,100667.56
2023-01-26T09:54:35.651Z,100666.72
2023-01-26T09:57:14.487Z,100667.22
2023-01-26T09:59:50.133Z,100657.19
2023-01-26T10:02:27.925Z,100664.78
2023-01-26T10:05:00.417Z,100666.28
2023-01-26T10:07:28.899Z,100651.66
2023-01-26T10:09:58.658Z,100659.50
2023-01-26T10:12:32.461Z,100647.34
2023-01-26T10:15:04.778Z,100655.25
2023-01-26T10:17:36.601Z,100655.25
2023-01-26T10:20:11.079Z,100649.09
2023-01-26T10:22:45.955Z,100650.56
2023-01-26T10:25:18.381Z,100647.59
2023-01-26T10:27:48.563Z,100643.78
2023-01-26T10:30:18.852Z,100638.38
2023-01-26T10:32:52.223Z,100638.38
2023-01-26T10:35:23.519Z,100640.06
2023-01-26T10:37:53.293Z,100642.31
2023-01-26T10:40:22.425Z,100638.69
2023-01-26T10:43:00.529Z,100631.78
2023-01-26T10:45:33.102Z,100636.84
2023-01-26T10:48:18.173Z,100641.38
2023-01-26T10:50:47.705Z,100643.75
2023-01-26T10:53:19.443Z,100646.25
2023-01-26T10:56:02.353Z,100646.25
2023-01-26T10:58:51.391Z,100639.34
2023-01-26T11:01:23.067Z,100639.09
2023-01-26T11:04:06.169Z,100635.03
2023-01-26T11:06:35.779Z,100628.13
2023-01-26T11:09:12.551Z,100638.22
2023-01-26T11:11:41.781Z,100631.06
2023-01-26T11:14:18.907Z,100626.50
2023-01-26T11:16:58.502Z,100628.00
2023-01-26T11:19:42.529Z,100623.63
2023-01-26T11:22:16.735Z,100608.94
2023-01-26T11:24:53.947Z,100600.84
2023-01-26T11:27:34.175Z,100595.44
2023-01-26T11:30:33.028Z,100590.28
2023-01-26T11:33:05.546Z,100586.16
2023-01-26T11:35:44.660Z,100599.22
2023-01-26T11:38:24.729Z,100591.00
2023-01-26T11:41:04.715Z,100598.84
2023-01-26T11:43:57.918Z,100593.53
2023-01-26T11:46:56.680Z,100591.75
2023-01-26T11:49:52.127Z,100591.75
2023-01-26T11:52:28.266Z,100579.13
2023-01-26T11:55:19.685Z,100579.34
2023-01-26T11:58:02.289Z,100585.41
2023-01-26T12:00:41.718Z,100590.63
2023-01-26T12:03:22.840Z,100580.09
2023-01-26T12:05:55.784Z,100580.09
2023-01-26T12:08:27.881Z,100570.75
2023-01-26T12:11:22.867Z,100555.50
2023-01-26T12:14:05.550Z,100557.38
2023-01-26T12:16:44.299Z,100568.16
2023-01-26T12:19:26.043Z,100568.72
2023-01-26T12:21:59.884Z,100570.41
2023-01-26T12:25:08.177Z,100569.84
2023-01-26T12:27:32.685Z,100546.66
2023-01-26T12:30:07.774Z,100558.59
2023-01-26T12:32:36.586Z,100559.44
2023-01-26T12:35:06.849Z,100539.81
2023-01-26T12:37:51.469Z,100556.38
2023-01-26T12:40:32.950Z,100554.13
2023-01-26T12:43:17.316Z,100545.59
2023-01-26T12:45:51.356Z,100548.88
2023-01-26T12:48:25.202Z,100552.78
2023-01-26T12:51:00.851Z,100556.34
2023-01-26T12:53:34.187Z,100549.50
2023-01-26T12:56:16.813Z,100547.75
2023-01-26T12:58:47.440Z,100552.22
2023-01-26T13:01:18.901Z,100546.81
2023-01-26T13:03:55.056Z,100538.78
2023-01-26T13:06:26.871Z,100535.94
2023-01-26T13:09:19.601Z,100519.19
2023-01-26T13:11:50.799Z,100541.31
2023-01-26T13:14:35.423Z,100543.59
2023-01-26T13:17:55.338Z,100536.69
2023-01-26T13:20:45.773Z,100530.09
2023-01-26T13:23:44.454Z,100529.28
2023-01-26T13:26:21.246Z,100535.06
2023-01-26T13:28:51.139Z,100539.94
2023-01-26T13:31:35.658Z,100537.91
2023-01-26T13:34:09.667Z,100539.34
2023-01-26T13:36:43.534Z,100535.78
2023-01-26T13:39:22.102Z,100531.38
2023-01-26T13:41:50.958Z,100534.69
2023-01-26T13:44:25.317Z,100544.28
2023-01-26T13:46:58.867Z,100538.41
2023-01-26T13:49:28.765Z,100545.38
2023-01-26T13:51:57.252Z,100534.09
2023-01-26T13:54:28.557Z,100539.41
2023-01-26T13:57:06.172Z,100536.03
2023-01-26T13:59:35.160Z,100535.28
2023-01-26T14:02:03.656Z,100524.84
2023-01-26T14:04:35.247Z,100515.50
2023-01-26T14:07:06.557Z,100516.25
2023-01-26T14:09:46.047Z,100516.44
2023-01-26T14:12:23.953Z,100519.72
2023-01-26T14:14:55.649Z,100525.69
2023-01-26T14:17:28.136Z,100516.81
2023-01-26T14:19:57.631Z,100522.78
2023-01-26T14:22:26.104Z,100516.19
2023-01-26T14:24:56.562Z,100515.13
2023-01-26T14:27:36.959Z,100518.78
2023-01-26T14:30:23.264Z,100524.09
2023-01-26T14:33:00.216Z,100515.31
2023-01-26T14:35:28.908Z,100525.78
2023-01-26T14:38:07.756Z,100520.38
2023-01-26T14:40:44.761Z,100524.59
2023-01-26T14:43:14.448Z,100524.59
2023-01-26T14:45:49.027Z,100521.88
2023-01-26T14:48:21.952Z,100512.63
2023-01-26T14:50:50.942Z,100519.00
2023-01-26T14:53:22.335Z,100517.22
2023-01-26T14:55:54.159Z,100518.88
2023-01-26T14:58:25.730Z,100507.50
2023-01-26T15:00:55.058Z,100516.09
2023-01-26T15:03:27.845Z,100515.53
2023-01-26T15:06:08.611Z,100502.00
2023-01-26T15:08:38.070Z,100517.13
2023-01-26T15:11:25.313Z,100504.81
2023-01-26T15:13:55.667Z,100514.59
2023-01-26T15:16:26.827Z,100518.31
2023-01-26T15:19:01.901Z,100513.63
2023-01-26T15:21:34.643Z,100507.66
2023-01-26T15:24:03.246Z,100510.28
2023-01-26T15:26:35.563Z,100507.66
2023-01-26T15:29:07.374Z,100524.25
2023-01-26T15:31:38.153Z,100519.22
2023-01-26T15:34:07.527Z,100517.34
2023-01-26T15:36:49.549Z,100520.53
2023-01-26T15:39:19.379Z,100516.06
2023-01-26T15:42:03.047Z,100516.81
2023-01-26T15:44:31.511Z,100505.63
2023-01-26T15:46:59.889Z,100508.94
2023-01-26T15:49:28.227Z,100520.72
2023-01-26T15:51:56.655Z,100512.31
2023-01-26T15:54:25.046Z,100515.31
2023-01-26T15:56:54.796Z,100515.13
2023-01-26T15:59:23.181Z,100516.00
2023-01-26T16:01:51.648Z,100518.84
2023-01-26T16:04:20.066Z,100519.59
2023-01-26T16:06:48.548Z,100510.09
2023-01-26T16:09:16.949Z,100513.38
2023-01-26T16:11:49.014Z,100522.78
2023-01-26T16:14:19.630Z,100519.53
2023-01-26T16:16:48.104Z,100518.44
2023-01-26T16:19:34.419Z,100517.50
2023-01-26T16:22:03.578Z,100518.69
2023-01-26T16:24:32.036Z,100521.22
2023-01-26T16:27:00.417Z,100528.19
2023-01-26T16:29:31.527Z,100518.50
2023-01-26T16:32:00.655Z,100516.81
2023-01-26T16:34:29.626Z,100515.13
2023-01-26T16:36:58.012Z,100516.06
2023-01-26T16:39:26.438Z,100520.28
2023-01-26T16:41:54.891Z,100523.72
2023-01-26T16:44:24.534Z,100521.88
2023-01-26T16:46:54.523Z,100523.53
2023-01-26T16:49:23.058Z,100521.88
2023-01-26T16:51:51.454Z,100520.19
2023-01-26T16:54:19.868Z,100522.78
2023-01-26T16:56:48.262Z,100523.53
2023-01-26T16:59:16.651Z,100514.78
2023-01-26T17:01:45.194Z,100526.91
2023-01-26T17:04:15.141Z,100525.91
2023-01-26T17:06:43.571Z,100530.38
2023-01-26T17:09:11.980Z,100532.88
2023-01-26T17:11:40.912Z,100535.69
2023-01-26T17:14:11.588Z,100531.19
2023-01-26T17:16:40.761Z,100526.91
2023-01-26T17:19:09.602Z,100528.78
2023-01-26T17:21:39.580Z,100534.69
2023-01-26T17:24:08.369Z,100517.00
2023-01-26T17:26:36.867Z,100535.59
2023-01-26T17:29:05.409Z,100529.81
2023-01-26T17:31:34.506Z,100538.22
2023-01-26T17:34:05.598Z,100535.50
2023-01-26T17:36:34.039Z,100532.06
2023-01-26T17:39:03.884Z,100525.22
2023-01-26T17:41:32.374Z,100538.13
2023-01-26T17:44:00.858Z,100519.44
2023-01-26T17:46:29.311Z,100533.81
2023-01-26T17:48:57.672Z,100535.50
2023-01-26T17:51:26.102Z,100532.88
2023-01-26T17:53:55.277Z,100529.44
2023-01-26T17:56:25.252Z,100532.81
2023-01-26T17:58:55.354Z,100524.22
2023-01-26T18:01:25.346Z,100519.25
2023-01-26T18:03:54.854Z,100521.78
2023-01-26T18:06:23.825Z,100527.84
2023-01-26T18:08:52.290Z,100520.00
2023-01-26T18:11:21.166Z,100524.41
2023-01-26T18:13:51.972Z,100522.72
2023-01-26T18:16:22.396Z,100527.94
2023-01-26T18:18:55.229Z,100530.44
2023-01-26T18:21:25.467Z,100528.78
2023-01-26T18:23:56.170Z,100527.09
2023-01-26T18:26:27.497Z,100525.34
2023-01-26T18:28:57.363Z,100521.88
2023-01-26T18:31:27.591Z,100523.38
2023-01-26T18:33:57.922Z,100527.75
2023-01-26T18:36:26.730Z,100532.88
2023-01-26T18:38:57.998Z,100531.31
2023-01-26T18:41:28.022Z,100512.53
2023-01-26T18:43:58.984Z,100526.91
2023-01-26T18:46:28.936Z,100532.06
2023-01-26T18:49:00.976Z,100540.72
2023-01-26T18:51:31.065Z,100539.91
2023-01-26T18:54:00.183Z,100545.13
2023-01-26T18:56:28.781Z,100543.34
2023-01-26T18:58:58.645Z,100547.63
2023-01-26T19:01:27.405Z,100546.88
2023-01-26T19:03:57.042Z,100551.19
2023-01-26T19:06:28.557Z,100548.56
2023-01-26T19:08:59.574Z,100541.59
2023-01-26T19:11:28.908Z,100550.25
2023-01-26T19:14:06.390Z,100557.16
2023-01-26T19:16:37.339Z,100559.78
2023-01-26T19:19:06.418Z,100552.03
2023-01-26T19:21:34.896Z,100553.78
2023-01-26T19:24:06.294Z,100556.34
2023-01-26T19:26:36.094Z,100558.09
2023-01-26T19:29:09.360Z,100542.78
2023-01-26T19:31:38.121Z,100563.31
2023-01-26T19:34:09.019Z,100568.47
2023-01-26T19:36:38.329Z,100558.09
2023-01-26T19:39:07.818Z,100560.72
2023-01-26T19:41:36.331Z,100563.31
2023-01-26T19:44:06.783Z,100558.09
2023-01-26T19:46:35.371Z,100554.72
2023-01-26T19:49:03.912Z,100556.41
2023-01-26T19:51:33.371Z,100553.91
2023-01-26T19:54:01.816Z,100554.66
2023-01-26T19:56:31.956Z,100549.31
2023-01-26T19:59:04.451Z,100555.41
2023-01-26T20:01:34.676Z,100544.38
2023-01-26T20:04:06.022Z,100552.03
2023-01-26T20:06:36.733Z,100544.28
2023-01-26T20:09:06.995Z,100549.50
2023-01-26T20:11:36.106Z,100552.88
2023-01-26T20:14:06.214Z,100547.63
2023-01-26T20:16:37.258Z,100546.81
2023-01-26T20:19:06.011Z,100546.81
2023-01-26T20:21:38.961Z,100539.22
2023-01-26T20:24:09.224Z,100541.03
2023-01-26T20:26:37.736Z,100540.94
2023-01-26T20:29:06.766Z,100536.56
2023-01-26T20:31:36.662Z,100541.50
2023-01-26T20:34:05.232Z,100532.91
2023-01-26T20:36:35.334Z,100542.53
2023-01-26T20:39:04.360Z,100544.41
2023-01-26T20:41:34.684Z,100540.19
2023-01-26T20:44:05.039Z,100539.34
2023-01-26T20:46:37.224Z,100539.44
2023-01-26T20:49:06.468Z,100535.25
2023-01-26T20:51:36.741Z,100537.84
2023-01-26T20:54:07.612Z,100538.69
2023-01-26T20:56:36.927Z,100537.00
2023-01-26T20:59:06.118Z,100532.81
2023-01-26T21:01:38.064Z,100538.69
2023-01-26T21:04:08.188Z,100526.72
2023-01-26T21:06:38.198Z,100536.19
2023-01-26T21:09:12.656Z,100531.94
2023-01-26T21:11:41.543Z,100530.94
2023-01-26T21:14:14.441Z,100530.28
2023-01-26T21:16:52.443Z,100523.38
2023-01-26T21:19:22.006Z,100532.81
2023-01-26T21:21:50.705Z,100530.09
2023-01-26T21:24:19.162Z,100525.03
2023-01-26T21:26:48.791Z,100515.63
2023-01-26T21:29:17.863Z,100523.38
2023-01-26T21:31:49.185Z,100521.69
2023-01-26T21:34:17.804Z,100530.44
2023-01-26T21:36:46.242Z,100526.16
2023-01-26T21:39:15.792Z,100520.19
2023-01-26T21:41:59.928Z,100517.00
2023-01-26T21:44:29.893Z,100520.19
2023-01-26T21:47:01.251Z,100525.59
2023-01-26T21:49:30.057Z,100519.72
2023-01-26T21:52:16.348Z,100526.63
2023-01-26T21:54:44.947Z,100524.09
2023-01-26T21:57:30.960Z,100518.84
2023-01-26T21:59:59.410Z,100518.84
2023-01-26T22:02:29.432Z,100517.09
2023-01-26T22:04:57.809Z,100512.81
2023-01-26T22:07:28.287Z,100517.19
2023-01-26T22:09:56.879Z,100509.34
2023-01-26T22:12:25.466Z,100511.13
2023-01-26T22:14:53.843Z,100514.56
2023-01-26T22:17:22.339Z,100509.44
2023-01-26T22:19:52.912Z,100518.09
2023-01-26T22:22:21.402Z,100503.38
2023-01-26T22:24:49.898Z,100501.69
2023-01-26T22:27:18.282Z,100504.22
2023-01-26T22:29:46.787Z,100505.03
2023-01-26T22:32:15.456Z,100510.28
2023-01-26T22:34:43.950Z,100505.97
2023-01-26T22:37:14.158Z,100498.13
2023-01-26T22:39:43.377Z,100509.34
2023-01-26T22:42:11.766Z,100505.03
2023-01-26T22:44:40.178Z,100510.28
2023-01-26T22:47:08.570Z,100501.69
2023-01-26T22:49:37.023Z,100509.34
2023-01-26T22:52:06.890Z,100504.13
2023-01-26T22:54:36.943Z,100499.81
2023-01-26T22:57:06.103Z,100498.13
2023-01-26T22:59:34.547Z,100499.81
2023-01-26T23:02:03.036Z,100505.03
2023-01-26T23:04:31.584Z,100498.06
2023-01-26T23:07:01.942Z,100495.44
2023-01-26T23:09:30.421Z,100503.28
2023-01-26T23:12:02.193Z,100506.72
2023-01-26T23:14:31.315Z,100500.75
2023-01-26T23:17:00.206Z,100505.03
2023-01-26T23:19:30.250Z,100506.72
2023-01-26T23:21:58.792Z,100501.50
2023-01-26T23:24:27.429Z,100508.59
2023-01-26T23:26:55.923Z,100497.31
2023-01-26T23:29:26.012Z,100500.75
2023-01-26T23:31:54.805Z,100497.31
2023-01-26T23:34:23.419Z,100490.72
2023-01-26T23:36:51.886Z,100500.84
2023-01-26T23:39:20.441Z,100493.28
2023-01-26T23:41:48.878Z,100502.44
2023-01-26T23:44:17.419Z,100498.88
2023-01-26T23:46:47.411Z,100507.66
2023-01-26T23:49:15.943Z,100505.03
2023-01-26T23:51:44.529Z,100505.91
2023-01-26T23:54:13.013Z,100504.22
2023-01-26T23:56:41.429Z,100505.91
2023-01-26T23:59:09.870Z,100503.28
